Time;durP1;ratioP1;P1;durP2;ratioP2;P2;SDS_P1;SDS_P2;PMS_P1;PMS_P2;Temp;Humidity;BMP_temperature;BMP_pressure;BME280_temperature;BME280_humidity;BME280_pressure;Samples;Min_cycle;Max_cycle;Signal;HPM_P1;HPM_P2
2022/01/08 00:00:18;;;;;;;5.85;1.42;;;;;;;0.63;100.00;100624.84;6179234;28;20058;-86
2022/01/08 00:03:20;;;;;;;1.48;1.02;;;;;;;0.56;100.00;100632.75;6178241;28;20062;-86
2022/01/08 00:06:21;;;;;;;2.60;1.27;;;;;;;0.52;100.00;100637.09;6178857;28;20403;-86
2022/01/08 00:09:23;;;;;;;2.35;1.38;;;;;;;0.57;100.00;100642.22;6178708;28;20051;-86
2022/01/08 00:12:26;;;;;;;3.60;1.40;;;;;;;0.52;100.00;100639.69;6180625;28;20047;-86
2022/01/08 00:15:27;;;;;;;3.03;1.45;;;;;;;0.53;100.00;100638.81;6204735;28;20050;-86
2022/01/08 00:18:29;;;;;;;3.30;1.75;;;;;;;0.50;100.00;100628.53;6204398;28;20050;-86
2022/01/08 00:21:30;;;;;;;1.40;1.30;;;;;;;0.53;100.00;100631.06;6202921;28;20517;-87
2022/01/08 00:24:32;;;;;;;3.70;1.65;;;;;;;0.59;100.00;100624.94;6156050;28;20047;-87
2022/01/08 00:27:34;;;;;;;3.33;2.10;;;;;;;0.61;100.00;100625.78;6160027;28;20043;-86
2022/01/08 00:30:36;;;;;;;2.83;1.63;;;;;;;0.52;100.00;100618.16;6161560;29;20488;-86
2022/01/08 00:33:37;;;;;;;4.65;1.83;;;;;;;0.48;100.00;100615.59;6180393;28;20047;-85
2022/01/08 00:36:39;;;;;;;1.45;1.23;;;;;;;0.38;100.00;100614.03;6183944;28;20050;-85
2022/01/08 00:39:40;;;;;;;2.42;1.48;;;;;;;0.32;100.00;100614.13;6182880;28;20065;-86
2022/01/08 00:42:43;;;;;;;2.55;1.50;;;;;;;0.36;100.00;100610.59;6183856;28;20502;-86
2022/01/08 00:45:45;;;;;;;3.15;1.88;;;;;;;0.44;100.00;100615.66;6184011;28;20054;-85
2022/01/08 00:48:46;;;;;;;8.98;2.13;;;;;;;0.49;100.00;100604.38;6185090;28;20050;-86
2022/01/08 00:51:47;;;;;;;4.05;2.53;;;;;;;0.56;100.00;100609.47;6184212;28;20050;-85
2022/01/08 00:54:49;;;;;;;2.92;1.73;;;;;;;0.58;100.00;100595.63;6161890;28;20415;-86
2022/01/08 00:57:52;;;;;;;3.70;2.15;;;;;;;0.58;100.00;100600.81;6160092;28;20054;-85
2022/01/08 01:00:53;;;;;;;2.38;1.58;;;;;;;0.67;100.00;100594.66;6159562;28;20074;-86
2022/01/08 01:03:55;;;;;;;3.20;1.73;;;;;;;0.68;100.00;100584.31;6158597;28;20076;-86
2022/01/08 01:06:56;;;;;;;1.65;1.38;;;;;;;0.76;100.00;100597.09;6159998;28;20055;-85
2022/01/08 01:09:58;;;;;;;2.95;1.85;;;;;;;0.80;100.00;100591.00;6159259;28;20410;-87
2022/01/08 01:13:01;;;;;;;5.70;2.25;;;;;;;0.83;100.00;100600.44;6159687;28;20074;-86
2022/01/08 01:16:02;;;;;;;3.85;1.33;;;;;;;0.85;100.00;100588.34;6161128;28;20047;-86
2022/01/08 01:19:04;;;;;;;3.75;1.98;;;;;;;0.83;100.00;100588.38;6160174;28;20114;-85
2022/01/08 01:22:06;;;;;;;4.55;2.78;;;;;;;0.88;100.00;100594.31;6160345;29;20097;-85
2022/01/08 01:25:11;;;;;;;2.72;2.15;;;;;;;0.93;100.00;100586.47;6159857;28;20047;-83
2022/01/08 01:28:26;;;;;;;11.68;2.05;;;;;;;0.93;100.00;100576.13;6160822;28;20054;-85
2022/01/08 01:41:29;;;;;;;3.72;2.75;;;;;;;0.96;100.00;100589.88;6206756;28;20046;-84
2022/01/08 01:47:54;;;;;;;4.70;2.58;;;;;;;0.98;100.00;100597.59;6186656;28;20130;-86
2022/01/08 01:50:56;;;;;;;5.97;3.10;;;;;;;1.01;100.00;100600.16;6183332;28;20057;-86
2022/01/08 01:53:57;;;;;;;4.97;2.97;;;;;;;1.02;100.00;100596.69;6177554;28;20055;-85
2022/01/08 01:57:01;;;;;;;5.30;3.17;;;;;;;1.00;100.00;100596.72;6180097;28;20051;-85
2022/01/08 02:00:07;;;;;;;6.30;2.97;;;;;;;0.96;100.00;100592.47;6178677;28;20051;-86
2022/01/08 02:03:09;;;;;;;3.75;2.75;;;;;;;0.98;100.00;100590.69;6167179;28;20055;-86
2022/01/08 02:06:10;;;;;;;4.65;3.13;;;;;;;1.00;100.00;100596.72;6159219;29;20427;-87
2022/01/08 02:09:12;;;;;;;7.35;3.30;;;;;;;1.01;100.00;100602.75;6165165;29;20050;-87
2022/01/08 02:12:17;;;;;;;5.53;3.10;;;;;;;0.96;100.00;100596.78;6189838;28;20061;-88
2022/01/08 02:15:20;;;;;;;6.25;2.50;;;;;;;1.02;100.00;100601.84;6199274;28;20053;-87
2022/01/08 02:18:22;;;;;;;5.50;3.60;;;;;;;1.05;100.00;100604.41;6200440;28;20046;-89
2022/01/08 02:21:26;;;;;;;4.53;2.67;;;;;;;0.99;100.00;100604.47;6190627;28;20129;-88
2022/01/08 02:24:28;;;;;;;4.68;2.50;;;;;;;1.03;100.00;100611.31;6177726;28;20051;-87
2022/01/08 02:27:30;;;;;;;3.17;2.22;;;;;;;1.01;100.00;100602.75;6177509;28;20060;-87
2022/01/08 02:30:31;;;;;;;5.05;2.40;;;;;;;1.02;100.00;100596.69;6177186;28;20054;-88
2022/01/08 02:33:33;;;;;;;4.15;2.65;;;;;;;1.04;100.00;100597.50;6178545;28;20050;-87
2022/01/08 02:36:35;;;;;;;6.97;3.90;;;;;;;1.00;100.00;100596.72;6178444;28;20141;-87
2022/01/08 02:39:41;;;;;;;6.20;3.08;;;;;;;1.01;100.00;100594.97;6177481;28;20057;-88
2022/01/08 02:42:51;;;;;;;5.75;2.88;;;;;;;1.04;100.00;100596.66;6178270;28;20411;-87
2022/01/08 02:45:53;;;;;;;5.72;3.80;;;;;;;1.00;100.00;100599.31;6178973;28;20082;-87
2022/01/08 02:48:54;;;;;;;6.47;3.13;;;;;;;1.07;100.00;100609.53;6175507;28;20043;-86
2022/01/08 02:51:57;;;;;;;7.60;3.63;;;;;;;1.04;100.00;100615.59;6175691;28;20058;-87
2022/01/08 02:54:58;;;;;;;4.85;2.58;;;;;;;1.04;100.00;100620.78;6163141;28;20047;-86
2022/01/08 02:57:59;;;;;;;3.78;2.33;;;;;;;1.06;100.00;100619.03;6152348;29;20055;-87
2022/01/08 03:01:01;;;;;;;7.78;2.83;;;;;;;1.11;100.00;100629.31;6152348;29;20419;-86
2022/01/08 03:04:04;;;;;;;5.22;3.45;;;;;;;1.13;100.00;100632.72;6153354;29;20047;-85
2022/01/08 03:07:13;;;;;;;6.85;3.28;;;;;;;1.10;100.00;100620.69;6153761;28;20047;-86
2022/01/08 03:10:16;;;;;;;10.73;3.70;;;;;;;1.17;100.00;100629.19;6152941;29;20054;-87
2022/01/08 03:13:17;;;;;;;6.57;3.15;;;;;;;1.20;100.00;100630.00;6152881;28;20051;-85
2022/01/08 03:16:19;;;;;;;4.75;3.35;;;;;;;1.14;100.00;100631.88;6153351;29;20063;-85
2022/01/08 03:19:20;;;;;;;5.22;2.83;;;;;;;1.13;100.00;100627.53;6153713;28;20058;-87
2022/01/08 03:22:29;;;;;;;4.50;3.03;;;;;;;1.15;100.00;100623.22;6153776;28;20562;-86
2022/01/08 03:25:32;;;;;;;5.57;4.18;;;;;;;1.12;100.00;100623.25;6167854;28;20050;-84
2022/01/08 03:28:33;;;;;;;5.57;2.90;;;;;;;1.07;100.00;100617.31;6177016;28;20058;-83
2022/01/08 03:31:35;;;;;;;6.72;4.35;;;;;;;1.00;100.00;100616.56;6192625;28;20050;-84
2022/01/08 03:34:36;;;;;;;6.03;3.45;;;;;;;0.99;100.00;100615.69;6184937;28;20054;-84
2022/01/08 03:37:39;;;;;;;4.60;2.90;;;;;;;1.01;100.00;100618.25;6194386;28;20046;-83
2022/01/08 03:40:40;;;;;;;4.38;3.10;;;;;;;1.05;100.00;100622.50;6184278;28;20074;-84
2022/01/08 03:43:42;;;;;;;5.32;3.50;;;;;;;1.03;100.00;100619.06;6176521;28;20054;-84
2022/01/08 03:46:43;;;;;;;4.18;2.67;;;;;;;1.06;100.00;100611.28;6175712;28;20418;-84
2022/01/08 03:49:45;;;;;;;8.60;3.33;;;;;;;1.06;100.00;100608.69;6180564;28;20043;-85
2022/01/08 03:52:50;;;;;;;5.60;3.33;;;;;;;1.07;100.00;100612.13;6193386;28;20245;-84
2022/01/08 03:55:51;;;;;;;5.60;3.08;;;;;;;1.07;100.00;100615.56;6202046;28;20047;-86
2022/01/08 03:58:53;;;;;;;4.45;3.22;;;;;;;1.07;100.00;100615.56;6183531;28;20051;-86
2022/01/08 04:01:54;;;;;;;8.38;4.10;;;;;;;1.07;100.00;100618.16;6157113;29;20051;-85
2022/01/08 04:04:56;;;;;;;5.88;3.35;;;;;;;1.09;100.00;100613.81;6158294;29;20062;-85
2022/01/08 04:07:59;;;;;;;9.15;4.80;;;;;;;1.06;100.00;100618.19;6158670;28;20078;-85
2022/01/08 04:11:01;;;;;;;12.82;4.57;;;;;;;1.06;100.00;100615.59;6158274;29;20047;-86
2022/01/08 04:14:02;;;;;;;9.00;3.78;;;;;;;1.07;100.00;100612.13;6158432;29;20051;-85
2022/01/08 04:17:07;;;;;;;7.20;3.90;;;;;;;1.09;100.00;100602.59;6165981;28;20050;-86
2022/01/08 04:20:10;;;;;;;7.70;3.65;;;;;;;1.07;100.00;100594.88;6168760;28;20297;-86
2022/01/08 04:23:14;;;;;;;5.88;2.90;;;;;;;1.07;100.00;100583.66;6168464;28;20055;-87
2022/01/08 04:26:15;;;;;;;9.50;4.47;;;;;;;1.06;100.00;100580.22;6160740;28;20057;-85
2022/01/08 04:29:17;;;;;;;6.82;4.05;;;;;;;1.10;100.00;100591.38;6173947;28;20054;-87
2022/01/08 04:32:18;;;;;;;7.13;4.15;;;;;;;1.02;100.00;100592.34;6169855;28;20050;-86
2022/01/08 04:35:19;;;;;;;7.45;4.05;;;;;;;1.05;100.00;100606.13;6165045;28;20051;-85
2022/01/08 04:38:23;;;;;;;10.35;4.65;;;;;;;1.07;100.00;100609.53;6165876;28;20047;-86
2022/01/08 04:41:34;;;;;;;7.57;3.85;;;;;;;1.11;100.00;100600.84;6174849;28;20055;-86
2022/01/08 04:44:35;;;;;;;6.78;4.05;;;;;;;1.12;100.00;100605.13;6179509;28;20047;-86
2022/01/08 04:47:36;;;;;;;9.20;4.47;;;;;;;1.02;100.00;100612.22;6180891;28;20062;-85
2022/01/08 04:50:38;;;;;;;6.90;4.03;;;;;;;1.03;100.00;100608.72;6182916;28;20043;-86
2022/01/08 04:53:40;;;;;;;9.18;4.30;;;;;;;0.92;100.00;100603.75;6183191;28;20047;-86
2022/01/08 04:56:42;;;;;;;7.15;3.97;;;;;;;0.86;100.00;100601.22;6183305;28;20058;-85
2022/01/08 04:59:46;;;;;;;6.72;3.47;;;;;;;0.82;100.00;100601.31;6182634;28;20054;-87
2022/01/08 05:02:48;;;;;;;9.25;4.30;;;;;;;0.78;100.00;100600.53;6183732;28;20061;-85
2022/01/08 05:05:49;;;;;;;9.43;3.55;;;;;;;0.79;100.00;100617.75;6183635;28;20051;-86
2022/01/08 05:08:52;;;;;;;9.52;4.55;;;;;;;0.76;100.00;100607.44;6182716;28;20058;-85
2022/01/08 05:11:54;;;;;;;8.57;4.68;;;;;;;0.82;100.00;100616.81;6182724;28;20431;-86
2022/01/08 05:14:56;;;;;;;9.00;4.25;;;;;;;0.87;100.00;100612.47;6182987;28;20058;-85
2022/01/08 05:17:57;;;;;;;10.13;4.60;;;;;;;0.92;100.00;100623.59;6183586;28;20095;-85
2022/01/08 05:21:10;;;;;;;9.20;5.28;;;;;;;0.83;100.00;100627.16;6183984;28;20046;-85
2022/01/08 05:24:25;;;;;;;8.77;4.38;;;;;;;0.84;100.00;100615.09;6183127;28;20043;-85
2022/01/08 05:27:27;;;;;;;10.10;4.95;;;;;;;0.80;100.00;100626.34;6172681;28;20054;-85
2022/01/08 05:30:30;;;;;;;10.48;4.82;;;;;;;0.81;100.00;100633.22;6169073;28;20043;-86
2022/01/08 05:33:31;;;;;;;7.57;4.43;;;;;;;0.74;100.00;100624.72;6164071;28;20047;-85
2022/01/08 05:36:32;;;;;;;11.90;5.68;;;;;;;0.71;100.00;100633.38;6155970;28;20392;-85
2022/01/08 05:39:35;;;;;;;8.82;4.80;;;;;;;0.69;100.00;100636.88;6156155;28;20048;-86
2022/01/08 05:42:37;;;;;;;10.73;4.82;;;;;;;0.67;100.00;100639.47;6156747;28;20066;-84
2022/01/08 05:45:38;;;;;;;11.75;4.85;;;;;;;0.66;100.00;100650.69;6180690;28;20050;-85
2022/01/08 05:48:40;;;;;;;9.35;4.63;;;;;;;0.71;100.00;100650.63;6180134;28;20063;-85
2022/01/08 05:51:42;;;;;;;8.50;3.72;;;;;;;0.73;100.00;100659.22;6179071;28;20513;-85
2022/01/08 05:54:44;;;;;;;6.72;4.80;;;;;;;0.71;100.00;100651.47;6179355;28;20114;-85
2022/01/08 05:57:46;;;;;;;9.55;4.97;;;;;;;0.72;100.00;100647.16;6155559;28;20051;-85
2022/01/08 06:00:50;;;;;;;8.90;4.25;;;;;;;0.71;100.00;100641.13;6155627;28;20051;-85
2022/01/08 06:03:51;;;;;;;9.15;5.75;;;;;;;0.73;100.00;100652.31;6155530;29;20055;-84
2022/01/08 06:06:53;;;;;;;10.85;5.82;;;;;;;0.65;100.00;100656.75;6155135;29;20055;-84
2022/01/08 06:09:55;;;;;;;13.48;5.15;;;;;;;0.64;100.00;100667.13;6154500;28;20055;-84
2022/01/08 06:12:57;;;;;;;10.38;5.13;;;;;;;0.60;100.00;100674.06;6155110;28;20055;-84
2022/01/08 06:15:58;;;;;;;9.23;4.13;;;;;;;0.57;100.00;100676.66;6199390;28;20078;-84
2022/01/08 06:19:00;;;;;;;10.75;5.43;;;;;;;0.54;100.00;100674.13;6202374;28;20054;-84
2022/01/08 06:22:02;;;;;;;9.32;4.63;;;;;;;0.53;100.00;100677.59;6201060;28;20138;-84
2022/01/08 06:25:06;;;;;;;8.85;4.57;;;;;;;0.46;100.00;100692.34;6202233;28;20569;-84
2022/01/08 06:28:07;;;;;;;8.82;4.53;;;;;;;0.40;100.00;100687.22;6176873;28;20066;-84
2022/01/08 06:31:08;;;;;;;9.10;5.20;;;;;;;0.37;100.00;100692.44;6178125;28;20074;-84
2022/01/08 06:34:10;;;;;;;19.52;5.25;;;;;;;0.31;100.00;100692.50;6178130;28;20058;-84
2022/01/08 06:37:12;;;;;;;9.15;4.68;;;;;;;0.27;100.00;100697.72;6178528;28;20047;-83
2022/01/08 06:40:15;;;;;;;8.05;4.75;;;;;;;0.21;100.00;100696.94;6178141;28;20053;-84
2022/01/08 06:43:16;;;;;;;10.13;4.78;;;;;;;0.17;100.00;100705.59;6177699;28;20426;-84
2022/01/08 06:46:17;;;;;;;15.70;5.28;;;;;;;0.12;100.00;100704.78;6177748;28;20059;-83
2022/01/08 06:49:19;;;;;;;10.63;4.35;;;;;;;0.08;100.00;100703.13;6177550;28;20487;-84
2022/01/08 06:52:20;;;;;;;10.13;4.63;;;;;;;0.02;100.00;100708.34;6177491;28;20395;-84
2022/01/08 06:55:23;;;;;;;8.68;4.97;;;;;;;-0.02;100.00;100704.09;6177875;28;20058;-85
2022/01/08 06:58:26;;;;;;;8.70;5.15;;;;;;;-0.01;100.00;100706.66;6177525;28;20057;-84
2022/01/08 07:01:28;;;;;;;11.10;5.63;;;;;;;0.01;100.00;100703.22;6177916;28;20522;-83
2022/01/08 07:04:29;;;;;;;8.50;4.72;;;;;;;0.01;100.00;100709.25;6178485;28;20051;-83
2022/01/08 07:07:30;;;;;;;8.73;4.78;;;;;;;0.02;100.00;100708.34;6178350;28;20055;-84
2022/01/08 07:10:34;;;;;;;8.85;4.53;;;;;;;0.01;100.00;100708.38;6177317;28;20047;-84
2022/01/08 07:13:35;;;;;;;12.15;5.05;;;;;;;-0.02;100.00;100706.69;6177823;28;20054;-83
2022/01/08 07:16:36;;;;;;;6.72;3.63;;;;;;;-0.04;100.00;100714.44;6178306;28;20062;-84
2022/01/08 07:19:38;;;;;;;5.95;3.95;;;;;;;-0.09;100.00;100711.06;6177749;28;20426;-84
2022/01/08 07:22:39;;;;;;;8.02;4.90;;;;;;;-0.17;100.00;100714.59;6178262;28;20418;-84
2022/01/08 07:25:42;;;;;;;8.27;4.75;;;;;;;-0.27;100.00;100711.25;6175963;28;20181;-84
2022/01/08 07:28:43;;;;;;;12.07;5.85;;;;;;;-0.33;100.00;100712.13;6177853;28;20046;-84
2022/01/08 07:31:45;;;;;;;6.53;4.60;;;;;;;-0.35;100.00;100713.03;6200044;28;20043;-86
2022/01/08 07:34:46;;;;;;;9.73;5.22;;;;;;;-0.42;100.00;100703.63;6208811;28;20050;-87
2022/01/08 07:37:49;;;;;;;10.98;6.43;;;;;;;-0.36;100.00;100716.50;6190253;28;20054;-86
2022/01/08 07:40:52;;;;;;;10.23;5.93;;;;;;;-0.34;100.00;100709.59;6206704;28;20504;-86
2022/01/08 07:43:54;;;;;;;8.05;4.35;;;;;;;-0.38;100.00;100721.66;6210166;28;20135;-86
2022/01/08 07:46:57;;;;;;;8.25;4.28;;;;;;;-0.35;100.00;100718.22;6209586;28;20070;-86
2022/01/08 07:49:58;;;;;;;7.57;4.00;;;;;;;-0.34;100.00;100714.75;6210260;28;20057;-87
2022/01/08 07:52:59;;;;;;;10.02;5.38;;;;;;;-0.37;100.00;100719.94;6211228;28;20042;-87
2022/01/08 07:56:02;;;;;;;10.20;4.95;;;;;;;-0.40;100.00;100723.41;6191095;28;20058;-86
2022/01/08 07:59:04;;;;;;;8.25;5.25;;;;;;;-0.36;100.00;100730.25;6165273;29;20511;-81
2022/01/08 08:02:05;;;;;;;10.10;3.97;;;;;;;-0.31;100.00;100736.22;6158081;28;20047;-84
2022/01/08 08:05:07;;;;;;;8.23;5.18;;;;;;;-0.29;100.00;100733.63;6166254;29;20043;-84
2022/01/08 08:08:10;;;;;;;9.73;5.45;;;;;;;-0.32;100.00;100734.53;6166334;28;20062;-85
2022/01/08 08:11:12;;;;;;;9.32;4.85;;;;;;;-0.29;100.00;100731.91;6167030;29;20047;-84
2022/01/08 08:14:14;;;;;;;13.60;5.18;;;;;;;-0.29;100.00;100734.47;6167691;28;20047;-84
2022/01/08 08:17:15;;;;;;;9.32;3.95;;;;;;;-0.27;100.00;100730.19;6183932;28;20053;-84
2022/01/08 08:20:16;;;;;;;6.70;4.10;;;;;;;-0.30;100.00;100719.88;6191971;28;20120;-85
2022/01/08 08:23:18;;;;;;;20.90;5.85;;;;;;;-0.28;100.00;100709.50;6186923;28;20047;-85
2022/01/08 08:26:21;;;;;;;9.23;5.03;;;;;;;-0.25;100.00;100712.06;6181424;28;20049;-85
2022/01/08 08:29:22;;;;;;;11.85;4.97;;;;;;;-0.24;100.00;100706.03;6180311;28;20046;-85
2022/01/08 08:32:24;;;;;;;8.77;4.70;;;;;;;-0.19;100.00;100706.84;6179578;28;20042;-85
2022/01/08 08:35:25;;;;;;;9.77;4.93;;;;;;;-0.15;100.00;100715.41;6180575;28;20047;-84
2022/01/08 08:38:27;;;;;;;11.68;5.63;;;;;;;-0.12;100.00;100708.50;6172382;28;20392;-85
2022/01/08 08:41:30;;;;;;;13.75;4.78;;;;;;;-0.16;100.00;100701.66;6157816;28;20063;-84
2022/01/08 08:44:32;;;;;;;10.80;5.18;;;;;;;-0.13;100.00;100705.94;6157290;28;20063;-85
2022/01/08 08:47:33;;;;;;;9.13;5.13;;;;;;;-0.11;100.00;100705.03;6157218;29;20078;-85
2022/01/08 08:50:35;;;;;;;10.10;5.65;;;;;;;-0.05;100.00;100712.72;6166125;29;20392;-85
2022/01/08 08:53:36;;;;;;;11.10;4.70;;;;;;;-0.01;100.00;100708.38;6169175;28;20062;-85
2022/01/08 08:56:39;;;;;;;9.45;5.13;;;;;;;-0.01;100.00;100710.97;6172073;28;20373;-85
2022/01/08 08:59:40;;;;;;;9.02;5.82;;;;;;;0.04;100.00;100706.59;6193308;28;20059;-86
2022/01/08 09:02:42;;;;;;;14.30;5.95;;;;;;;0.10;100.00;100703.97;6181856;28;20070;-84
2022/01/08 09:05:44;;;;;;;12.88;6.03;;;;;;;0.13;100.00;100706.50;6163999;28;20136;-84
2022/01/08 09:08:45;;;;;;;10.27;5.47;;;;;;;0.18;100.00;100703.88;6206665;28;20065;-84
2022/01/08 09:11:48;;;;;;;8.90;4.70;;;;;;;0.20;100.00;100707.31;6205084;28;20053;-85
2022/01/08 09:14:49;;;;;;;9.60;4.97;;;;;;;0.20;100.00;100704.72;6207128;28;20046;-84
2022/01/08 09:17:56;;;;;;;10.00;5.85;;;;;;;0.22;100.00;100708.97;6204456;28;20504;-85
2022/01/08 09:20:57;;;;;;;8.82;5.65;;;;;;;0.30;100.00;100708.03;6204391;28;20049;-82
2022/01/08 09:23:59;;;;;;;7.10;4.63;;;;;;;0.30;100.00;100708.91;6204458;28;20637;-85
2022/01/08 09:27:20;;;;;;;13.10;6.43;;;;;;;0.31;100.00;100702.84;6203939;28;20050;-84
2022/01/08 09:30:22;;;;;;;7.75;4.70;;;;;;;0.36;100.00;100705.38;6173275;28;20051;-85
2022/01/08 09:33:24;;;;;;;9.93;5.25;;;;;;;0.41;100.00;100713.94;6189111;28;20494;-85
2022/01/08 09:36:28;;;;;;;7.70;4.63;;;;;;;0.47;100.00;100699.22;6179261;28;20046;-85
2022/01/08 09:39:30;;;;;;;6.53;4.72;;;;;;;0.50;100.00;100706.94;6174506;28;20047;-84
2022/01/08 09:42:33;;;;;;;11.05;6.18;;;;;;;0.50;100.00;100701.75;6169184;28;20053;-84
2022/01/08 09:45:36;;;;;;;10.25;5.32;;;;;;;0.57;100.00;100699.09;6175871;28;20046;-83
2022/01/08 09:48:38;;;;;;;11.68;5.57;;;;;;;0.59;100.00;100700.78;6182774;28;20054;-82
2022/01/08 09:51:39;;;;;;;12.15;6.20;;;;;;;0.62;100.00;100694.72;6181886;28;20046;-83
2022/01/08 09:54:41;;;;;;;8.18;4.95;;;;;;;0.68;100.00;100703.25;6172038;28;20057;-83
2022/01/08 09:57:43;;;;;;;12.20;5.10;;;;;;;0.72;100.00;100693.69;6174702;28;20054;-82
2022/01/08 10:00:46;;;;;;;10.00;4.63;;;;;;;0.79;100.00;100689.31;6178262;28;20407;-83
2022/01/08 10:03:48;;;;;;;10.27;4.70;;;;;;;0.81;100.00;100683.22;6186845;28;20057;-83
2022/01/08 10:06:49;;;;;;;7.13;3.83;;;;;;;0.89;100.00;100683.13;6180217;28;20056;-83
2022/01/08 10:12:44;;;;;;;5.20;2.85;;;;;;;0.97;100.00;100674.38;6373068;27;20735;-83
2022/01/08 10:19:18;;;;;;;7.88;4.55;;;;;;;1.13;100.00;100661.19;6373413;28;20130;-82
2022/01/08 10:22:19;;;;;;;9.57;4.07;;;;;;;1.17;100.00;100665.44;6367518;27;20043;-82
2022/01/08 10:25:21;;;;;;;7.95;4.82;;;;;;;1.21;100.00;100665.34;6365387;28;20048;-81
2022/01/08 10:28:34;;;;;;;8.63;4.43;;;;;;;1.30;100.00;100653.16;6374215;27;20047;-82
2022/01/08 10:31:39;;;;;;;10.82;4.90;;;;;;;1.32;100.00;100666.91;6350258;28;20455;-83
2022/01/08 10:34:49;;;;;;;11.10;5.55;;;;;;;1.37;100.00;100660.81;6350610;28;20048;-83
2022/01/08 10:37:52;;;;;;;8.70;4.47;;;;;;;1.42;100.00;100655.53;6352738;28;20048;-83
2022/01/08 10:40:54;;;;;;;14.38;5.78;;;;;;;1.48;100.00;100652.84;6352561;28;20100;-83
2022/01/08 10:44:08;;;;;;;7.25;4.65;;;;;;;1.53;100.00;100643.25;6351921;28;20044;-83
2022/01/08 10:47:13;;;;;;;9.77;4.68;;;;;;;1.57;100.00;100637.13;6365737;27;20040;-83
2022/01/08 10:50:23;;;;;;;6.65;4.38;;;;;;;1.70;100.00;100635.19;6373672;27;20043;-83
2022/01/08 10:53:52;;;;;;;8.52;4.35;;;;;;;1.84;100.00;100635.75;6368082;27;20069;-83
2022/01/08 10:56:57;;;;;;;11.15;4.95;;;;;;;1.81;100.00;100622.84;6371344;27;20066;-84
2022/01/08 10:59:59;;;;;;;8.73;4.65;;;;;;;1.84;100.00;100616.78;6371429;27;20054;-83
2022/01/08 11:03:01;;;;;;;10.88;4.32;;;;;;;1.82;100.00;100615.94;6366990;27;20043;-82
2022/01/08 11:06:03;;;;;;;13.65;4.05;;;;;;;1.86;100.00;100628.81;6359063;27;20040;-82
2022/01/08 11:09:04;;;;;;;10.45;5.63;;;;;;;1.87;100.00;100616.72;6363869;28;20044;-83
2022/01/08 11:12:08;;;;;;;10.68;5.05;;;;;;;1.94;100.00;100606.19;6359859;28;20046;-82
2022/01/08 11:15:36;;;;;;;9.60;4.00;;;;;;;2.07;100.00;100603.34;6360873;27;20127;-84
2022/01/08 11:18:39;;;;;;;12.20;6.03;;;;;;;2.10;100.00;100600.72;6355498;28;20052;-76
2022/01/08 11:21:40;;;;;;;8.82;4.78;;;;;;;2.17;100.00;100592.75;6344466;28;20044;-81
2022/01/08 11:24:48;;;;;;;10.75;5.10;;;;;;;2.29;100.00;100592.50;6331271;28;20051;-78
2022/01/08 11:27:59;;;;;;;17.45;4.57;;;;;;;2.30;100.00;100582.97;6347161;28;20074;-74
2022/01/08 11:31:03;;;;;;;8.95;4.15;;;;;;;2.34;100.00;100579.44;6349165;28;20483;-80
2022/01/08 11:34:09;;;;;;;11.40;5.28;;;;;;;2.34;100.00;100558.69;6354235;28;20050;-81
2022/01/08 11:37:13;;;;;;;12.75;5.75;;;;;;;2.39;100.00;100551.66;6349077;28;20051;-79
2022/01/08 11:40:17;;;;;;;12.80;5.05;;;;;;;2.44;100.00;100546.34;6348237;28;20054;-81
2022/01/08 11:43:21;;;;;;;11.32;6.10;;;;;;;2.43;100.00;100548.09;6346677;28;20039;-81
2022/01/08 11:46:25;;;;;;;9.32;4.32;;;;;;;2.47;100.00;100551.50;6331857;28;20048;-82
2022/01/08 11:49:27;;;;;;;9.80;5.28;;;;;;;2.41;100.00;100549.03;6349045;28;20184;-83
2022/01/08 11:52:28;;;;;;;8.23;4.18;;;;;;;2.41;100.00;100552.50;6347360;28;20036;-80
2022/01/08 11:55:36;;;;;;;9.73;5.13;;;;;;;2.37;100.00;100545.66;6353383;28;20047;-82
2022/01/08 11:58:38;;;;;;;6.82;4.25;;;;;;;2.37;100.00;100537.88;6354824;28;20047;-83
2022/01/08 12:01:43;;;;;;;7.68;3.92;;;;;;;2.44;100.00;100539.44;6366000;27;20040;-81
2022/01/08 12:04:52;;;;;;;11.07;5.60;;;;;;;2.47;100.00;100529.00;6353414;28;20052;-82
2022/01/08 12:08:14;;;;;;;14.00;5.30;;;;;;;2.51;100.00;100519.41;6354385;28;20620;-83
2022/01/08 12:11:15;;;;;;;11.90;5.68;;;;;;;2.54;100.00;100519.31;6336432;28;20040;-80
2022/01/08 12:14:18;;;;;;;16.30;5.50;;;;;;;2.55;100.00;100515.84;6348777;28;20050;-81
2022/01/08 12:17:22;;;;;;;12.30;6.05;;;;;;;2.57;100.00;100524.44;6350265;28;20044;-82
2022/01/08 12:20:39;;;;;;;14.45;5.22;;;;;;;2.60;100.00;100521.78;6362846;27;20031;-82
2022/01/08 12:23:42;;;;;;;9.90;4.93;;;;;;;2.65;100.00;100504.34;6357973;28;20051;-81
2022/01/08 12:26:44;;;;;;;11.52;4.72;;;;;;;2.68;100.00;100501.69;6361721;27;20065;-83
2022/01/08 12:29:45;;;;;;;13.32;5.65;;;;;;;2.59;100.00;100509.72;6351001;28;20040;-83
2022/01/08 12:32:51;;;;;;;16.85;6.13;;;;;;;2.69;100.00;100508.59;6346397;28;20047;-83
2022/01/08 12:35:57;;;;;;;10.25;5.72;;;;;;;2.70;100.00;100493.88;6344703;28;20592;-82
2022/01/08 12:39:04;;;;;;;13.45;6.20;;;;;;;2.62;100.00;100493.19;6336613;28;20119;-80
2022/01/08 12:42:39;;;;;;;13.13;6.18;;;;;;;2.36;100.00;100492.06;6341927;27;20054;-80
2022/01/08 12:45:42;;;;;;;13.88;5.30;;;;;;;2.35;100.00;100482.59;6336439;28;20048;-82
2022/01/08 12:49:12;;;;;;;9.23;5.18;;;;;;;2.35;100.00;100472.22;6337376;28;20243;-77
2022/01/08 12:52:13;;;;;;;;;;;;;;;2.33;100.00;100468.84;6332481;28;20044;-79
2022/01/08 12:55:15;;;;;;;12.65;5.72;;;;;;;2.39;100.00;100458.31;6325734;28;19924;-74
2022/01/08 12:58:18;;;;;;;19.95;6.90;;;;;;;2.37;100.00;100462.69;6337772;28;20499;-74
2022/01/08 13:01:23;;;;;;;20.88;7.45;;;;;;;2.35;100.00;100446.28;6335454;28;20403;-79
2022/01/08 13:04:26;;;;;;;16.30;6.43;;;;;;;2.23;100.00;100457.84;6351037;28;20683;-79
2022/01/08 13:07:27;;;;;;;14.68;7.57;;;;;;;2.26;100.00;100436.16;6350902;27;20048;-78
2022/01/08 13:10:32;;;;;;;17.35;5.93;;;;;;;2.27;100.00;100435.25;6351223;28;20084;-78
2022/01/08 13:13:40;;;;;;;18.98;6.38;;;;;;;2.28;100.00;100435.25;6351258;28;20518;-79
2022/01/08 13:16:43;;;;;;;15.37;6.53;;;;;;;2.21;100.00;100433.66;6350381;28;20077;-79
2022/01/08 13:19:45;;;;;;;13.80;6.35;;;;;;;2.22;100.00;100426.75;6344855;28;20499;-79
2022/01/08 13:22:48;;;;;;;13.18;5.72;;;;;;;2.23;100.00;100423.28;6331619;28;20636;-79
2022/01/08 13:25:53;;;;;;;14.48;6.13;;;;;;;2.19;100.00;100419.91;6329404;28;20052;-78
2022/01/08 13:28:54;;;;;;;13.65;6.50;;;;;;;2.15;100.00;100417.44;6332636;28;20047;-81
2022/01/08 13:31:58;;;;;;;13.48;6.40;;;;;;;2.14;100.00;100424.34;6344252;28;20048;-73
2022/01/08 13:35:01;;;;;;;13.10;6.00;;;;;;;2.12;100.00;100428.72;6345694;28;20047;-82
2022/01/08 13:38:03;;;;;;;30.98;7.38;;;;;;;2.09;100.00;100436.56;6347851;28;20180;-81
2022/01/08 13:41:09;;;;;;;14.48;7.07;;;;;;;2.08;100.00;100427.06;6347678;28;20044;-81
2022/01/08 13:44:12;;;;;;;15.88;5.55;;;;;;;2.17;100.00;100416.47;6348893;28;20050;-79
2022/01/08 13:47:22;;;;;;;11.25;5.35;;;;;;;2.07;100.00;100419.34;6348600;28;20054;-82
2022/01/08 13:50:29;;;;;;;13.77;5.60;;;;;;;2.05;100.00;100414.22;6348747;28;20059;-81
2022/01/08 13:53:30;;;;;;;17.67;5.38;;;;;;;2.02;100.00;100406.50;6350906;28;20635;-81
2022/01/08 13:56:33;;;;;;;17.20;5.30;;;;;;;2.14;100.00;100395.00;6336997;28;20044;-80
2022/01/08 13:59:35;;;;;;;9.27;5.45;;;;;;;2.12;100.00;100389.81;6336877;28;20517;-81
2022/01/08 14:02:36;;;;;;;8.80;4.80;;;;;;;2.15;100.00;100387.16;6333492;28;20036;-82
2022/01/08 14:05:39;;;;;;;12.80;5.30;;;;;;;2.08;100.00;100377.81;6336822;28;20054;-82
2022/01/08 14:08:53;;;;;;;14.27;4.60;;;;;;;2.10;100.00;100370.03;6333820;28;20790;-82
2022/01/08 14:12:09;;;;;;;8.73;4.68;;;;;;;2.13;100.00;100362.16;6336973;28;20050;-83
2022/01/08 14:15:25;;;;;;;14.88;4.50;;;;;;;2.05;100.00;100352.00;6338010;28;20051;-83
2022/01/08 14:18:29;;;;;;;7.72;4.53;;;;;;;2.03;100.00;100358.94;6337140;28;20047;-82
2022/01/08 14:21:31;;;;;;;9.90;4.30;;;;;;;1.96;100.00;100350.50;6331657;28;20057;-82
2022/01/08 14:24:35;;;;;;;8.70;4.55;;;;;;;1.98;100.00;100340.06;6337018;28;20044;-83
2022/01/08 14:27:39;;;;;;;6.75;3.72;;;;;;;1.97;100.00;100341.81;6334130;28;20189;-83